Time;durP1;ratioP1;P1;durP2;ratioP2;P2;SDS_P1;SDS_P2;PMS_P1;PMS_P2;Temp;Humidity;BMP_temperature;BMP_pressure;BME280_temperature;BME280_humidity;BME280_pressure;Samples;Min_cycle;Max_cycle;Signal;HPM_P1;HPM_P2
2023/04/15 00:01:02;;;;;;;0.00;0.00;;;;;;;3.74;100.00;99801.94;6248418;22;20453;-79
2023/04/15 00:03:35;;;;;;;0.00;0.00;;;;;;;3.56;100.00;99778.53;6220014;22;20015;-81
2023/04/15 00:06:11;;;;;;;;;;;;;;;;;;;;;
2023/04/15 00:08:39;;;;;;;0.00;0.00;;;;;;;3.45;100.00;99792.91;6247795;22;20390;-81
2023/04/15 00:11:05;;;;;;;0.00;0.00;;;;;;;3.30;100.00;99771.72;6195499;22;20123;-80
2023/04/15 00:13:33;;;;;;;0.00;0.00;;;;;;;3.21;100.00;99765.03;6241567;22;20454;-81
2023/04/15 00:16:16;;;;;;;0.00;0.00;;;;;;;3.38;100.00;99803.00;6242578;22;19995;-80
2023/04/15 00:18:51;;;;;;;0.03;0.03;;;;;;;3.27;100.00;99788.41;6240046;22;20061;-79
2023/04/15 00:21:17;;;;;;;0.00;0.00;;;;;;;3.17;100.00;99780.91;6244491;22;20453;-79
2023/04/15 00:23:42;;;;;;;0.00;0.00;;;;;;;3.30;100.00;99813.09;6215018;22;20007;-80
2023/04/15 00:26:11;;;;;;;0.00;0.00;;;;;;;3.24;100.00;99800.53;6197017;22;20055;-78
2023/04/15 00:28:39;;;;;;;0.00;0.00;;;;;;;3.27;100.00;99797.34;6266472;22;20011;-78
2023/04/15 00:31:04;;;;;;;0.00;0.00;;;;;;;3.27;100.00;99818.97;6218651;22;20042;-78
2023/04/15 00:33:30;;;;;;;0.00;0.00;;;;;;;3.27;100.00;99812.72;6217077;22;20004;-78
2023/04/15 00:35:57;;;;;;;0.10;0.10;;;;;;;3.11;100.00;99798.00;6214257;22;20007;-78
2023/04/15 00:38:23;;;;;;;0.00;0.00;;;;;;;3.31;100.00;99835.53;6219503;22;20086;-80
2023/04/15 00:40:48;;;;;;;0.00;0.00;;;;;;;3.22;100.00;99809.91;6196294;22;20463;-79
2023/04/15 00:43:16;;;;;;;0.00;0.00;;;;;;;3.21;100.00;99817.19;6195352;22;20145;-79
2023/04/15 00:45:53;;;;;;;0.00;0.00;;;;;;;3.19;100.00;99811.19;6199393;22;20008;-79
2023/04/15 00:48:21;;;;;;;0.00;0.00;;;;;;;3.25;100.00;99821.06;6223218;22;20022;-78
2023/04/15 00:50:56;;;;;;;0.00;0.00;;;;;;;2.99;100.00;99786.38;6224453;22;20310;-79
2023/04/15 00:53:21;;;;;;;;;;;;;;;3.26;100.00;99838.94;6280469;22;20005;-78
2023/04/15 00:55:47;;;;;;;0.00;0.00;;;;;;;3.14;100.00;99821.88;6251023;22;19952;-79
2023/04/15 01:01:20;;;;;;;0.00;0.00;;;;;;;3.08;100.00;99803.88;6211390;22;20014;-78
2023/04/15 01:03:49;;;;;;;0.00;0.00;;;;;;;3.19;100.00;99816.59;6250743;22;20347;-79
2023/04/15 01:06:15;;;;;;;0.00;0.00;;;;;;;2.99;100.00;99786.38;6246749;22;20004;-80
2023/04/15 01:08:41;;;;;;;0.00;0.00;;;;;;;3.28;100.00;99836.81;6248944;22;20004;-79
2023/04/15 01:11:07;;;;;;;0.00;0.00;;;;;;;3.22;100.00;99836.94;6245686;22;20272;-78
2023/04/15 01:13:40;;;;;;;0.00;0.00;;;;;;;3.19;100.00;99832.81;6192816;22;20338;-79
2023/04/15 01:16:07;;;;;;;0.00;0.00;;;;;;;3.20;100.00;99855.25;6245418;22;20014;-79
2023/04/15 01:18:36;;;;;;;0.00;0.00;;;;;;;3.26;100.00;99871.38;6243011;22;19999;-79
2023/04/15 01:21:07;;;;;;;0.00;0.00;;;;;;;3.38;100.00;99889.50;6213511;22;20030;-78
2023/04/15 01:23:37;;;;;;;0.00;0.00;;;;;;;3.16;100.00;99868.41;6237311;23;20007;-79
2023/04/15 01:26:03;;;;;;;0.00;0.00;;;;;;;3.34;100.00;99897.22;6215602;23;20437;-79
2023/04/15 01:28:30;;;;;;;0.00;0.00;;;;;;;3.25;100.00;99896.72;6211330;23;20047;-78
2023/04/15 01:31:15;;;;;;;0.10;0.10;;;;;;;3.08;100.00;99882.22;6215121;23;20023;-79
2023/04/15 01:33:43;;;;;;;0.00;0.00;;;;;;;3.15;100.00;99907.28;6215253;23;20015;-78
2023/04/15 01:36:12;;;;;;;0.00;0.00;;;;;;;3.25;100.00;99918.34;6189828;23;20004;-79
2023/04/15 01:38:38;;;;;;;0.05;0.05;;;;;;;3.08;100.00;99893.88;6187789;23;20008;-78
2023/04/15 01:41:05;;;;;;;0.00;0.00;;;;;;;3.11;100.00;99916.88;6190793;23;20112;-80
2023/04/15 01:43:31;;;;;;;0.00;0.00;;;;;;;3.04;100.00;99908.03;6216403;23;20004;-79
2023/04/15 01:46:06;;;;;;;;;;;;;;;;;;;;;
2023/04/15 01:48:32;;;;;;;0.00;0.00;;;;;;;3.06;100.00;99914.06;6238663;23;20087;-79
2023/04/15 01:50:58;;;;;;;0.00;0.00;;;;;;;3.10;100.00;99929.59;6212867;23;20043;-80
2023/04/15 01:53:32;;;;;;;0.00;0.00;;;;;;;3.21;100.00;99954.19;6192201;23;20447;-79
2023/04/15 01:56:06;;;;;;;0.05;0.05;;;;;;;3.04;100.00;99932.38;6240119;23;20015;-78
2023/04/15 01:58:41;;;;;;;0.00;0.00;;;;;;;3.00;100.00;99931.19;6216210;23;20004;-77
2023/04/15 02:01:09;;;;;;;0.00;0.00;;;;;;;2.93;100.00;99921.28;6238961;23;20450;-77
2023/04/15 02:03:34;;;;;;;0.10;0.10;;;;;;;2.95;100.00;99932.69;6190172;23;20139;-78
2023/04/15 02:06:00;;;;;;;0.00;0.00;;;;;;;2.99;100.00;99941.16;6189270;23;20008;-77
2023/04/15 02:08:25;;;;;;;0.00;0.00;;;;;;;3.04;100.00;99940.47;6190477;23;20004;-78
2023/04/15 02:10:51;;;;;;;0.00;0.00;;;;;;;3.04;100.00;99959.38;6166882;23;20091;-78
2023/04/15 02:13:17;;;;;;;0.00;0.00;;;;;;;3.03;100.00;99965.84;6186851;23;20019;-77
2023/04/15 02:15:49;;;;;;;0.00;0.00;;;;;;;3.04;100.00;99972.88;6214876;23;20023;-78
2023/04/15 02:18:15;;;;;;;0.00;0.00;;;;;;;2.98;100.00;99966.53;6191058;23;20368;-78
2023/04/15 02:20:42;;;;;;;0.00;0.00;;;;;;;3.06;100.00;99989.72;6216742;23;20012;-78
2023/04/15 02:23:08;;;;;;;0.00;0.00;;;;;;;2.95;100.00;99961.59;6192925;23;20357;-77
2023/04/15 02:25:37;;;;;;;0.00;0.00;;;;;;;2.77;100.00;99944.34;6213570;23;20004;-79
2023/04/15 02:28:05;;;;;;;0.00;0.00;;;;;;;2.82;100.00;99959.88;6215818;23;20531;-78
2023/04/15 02:30:32;;;;;;;0.00;0.00;;;;;;;2.93;100.00;99983.41;6164688;23;20042;-78
2023/04/15 02:32:57;;;;;;;0.00;0.00;;;;;;;2.81;100.00;99977.13;6194439;23;20311;-79
2023/04/15 02:35:24;;;;;;;0.00;0.00;;;;;;;2.66;100.00;99958.59;6219705;23;20113;-81
2023/04/15 02:37:50;;;;;;;0.03;0.03;;;;;;;2.65;100.00;99950.72;6195515;23;20334;-79
2023/04/15 02:40:22;;;;;;;0.10;0.10;;;;;;;2.77;100.00;99976.75;6219573;23;20008;-78
2023/04/15 02:42:50;;;;;;;0.00;0.00;;;;;;;2.75;100.00;99980.72;6193835;23;20063;-79
2023/04/15 02:45:16;;;;;;;0.00;0.00;;;;;;;2.72;100.00;99989.28;6218667;23;20415;-78
2023/04/15 02:47:43;;;;;;;0.00;0.00;;;;;;;2.81;100.00;99997.91;6218732;23;20398;-78
2023/04/15 02:50:12;;;;;;;0.10;0.10;;;;;;;2.74;100.00;99995.28;6218252;23;20091;-78
2023/04/15 02:52:41;;;;;;;0.00;0.00;;;;;;;2.65;100.00;99980.44;6218428;23;20004;-77
2023/04/15 02:55:08;;;;;;;0.10;0.10;;;;;;;2.69;100.00;99989.75;6217990;23;20087;-79
2023/04/15 02:57:36;;;;;;;0.00;0.00;;;;;;;2.62;100.00;99979.81;6219203;23;20432;-79
2023/04/15 03:00:12;;;;;;;0.00;0.00;;;;;;;2.66;100.00;99984.75;6218573;23;20007;-80
2023/04/15 03:02:38;;;;;;;0.00;0.00;;;;;;;2.71;100.00;99999.25;6217414;23;20082;-79
2023/04/15 03:05:04;;;;;;;0.00;0.00;;;;;;;2.64;100.00;99987.69;6192661;23;20028;-79
2023/04/15 03:07:30;;;;;;;0.00;0.00;;;;;;;2.64;100.00;99992.28;6217977;23;20019;-79
2023/04/15 03:10:01;;;;;;;0.00;0.00;;;;;;;2.53;100.00;99997.38;6216834;23;20439;-78
2023/04/15 03:12:31;;;;;;;0.00;0.00;;;;;;;2.61;100.00;100015.97;6189845;23;20008;-80
2023/04/15 03:14:57;;;;;;;0.10;0.10;;;;;;;2.70;100.00;100035.41;6215377;23;20091;-78
2023/04/15 03:17:22;;;;;;;0.00;0.00;;;;;;;2.49;100.00;100017.75;6187224;23;20712;-79
2023/04/15 03:19:50;;;;;;;0.00;0.00;;;;;;;2.53;100.00;100023.53;6163526;23;20007;-79
2023/04/15 03:22:26;;;;;;;0.00;0.00;;;;;;;2.44;100.00;100021.13;6186019;23;20308;-80
2023/04/15 03:24:51;;;;;;;0.00;0.00;;;;;;;2.39;100.00;100028.22;6190811;23;20011;-79
2023/04/15 03:27:17;;;;;;;0.00;0.00;;;;;;;2.40;100.00;100035.28;6238202;23;20028;-78
2023/04/15 03:29:42;;;;;;;0.00;0.00;;;;;;;2.41;100.00;100034.22;6214431;23;20330;-78
2023/04/15 03:32:17;;;;;;;0.03;0.03;;;;;;;2.39;100.00;100049.81;6189653;23;20008;-79
2023/04/15 03:35:44;;;;;;;0.00;0.00;;;;;;;2.54;100.00;100080.00;6193385;23;20453;-81
2023/04/15 03:38:19;;;;;;;;;;;;;;;;;;;;;
2023/04/15 03:40:46;;;;;;;0.00;0.00;;;;;;;2.51;100.00;100088.53;6242119;23;20084;-79
2023/04/15 03:43:11;;;;;;;0.00;0.00;;;;;;;2.43;100.00;100078.03;6187396;23;20018;-78
2023/04/15 03:45:36;;;;;;;0.00;0.00;;;;;;;2.38;100.00;100072.44;6190292;23;20092;-78
2023/04/15 03:48:02;;;;;;;0.00;0.00;;;;;;;2.47;100.00;100076.53;6209826;23;20132;-78
2023/04/15 03:50:33;;;;;;;0.10;0.10;;;;;;;2.58;100.00;100096.56;6229288;23;20014;-79
2023/04/15 03:53:01;;;;;;;0.00;0.00;;;;;;;2.38;100.00;100081.38;6199899;23;20076;-78
2023/04/15 03:55:26;;;;;;;0.00;0.00;;;;;;;2.39;100.00;100093.00;6228011;23;20007;-78
2023/04/15 03:57:51;;;;;;;0.00;0.00;;;;;;;2.26;100.00;100078.56;6196905;23;20388;-78
2023/04/15 04:00:17;;;;;;;0.00;0.00;;;;;;;2.36;100.00;100096.13;6191514;23;20012;-79
2023/04/15 04:02:44;;;;;;;0.00;0.00;;;;;;;2.28;100.00;100086.44;6189543;23;20083;-79
2023/04/15 04:05:10;;;;;;;0.00;0.00;;;;;;;2.24;100.00;100091.44;6214466;23;20020;-79
2023/04/15 04:07:35;;;;;;;0.00;0.00;;;;;;;2.16;100.00;100083.63;6167108;23;20007;-80
2023/04/15 04:10:02;;;;;;;0.00;0.00;;;;;;;2.23;100.00;100094.38;6162048;23;20008;-78
2023/04/15 04:12:28;;;;;;;0.00;0.00;;;;;;;2.28;100.00;100102.63;6214782;23;20720;-78
2023/04/15 04:14:55;;;;;;;0.00;0.00;;;;;;;2.22;100.00;100104.34;6164504;23;20008;-79
2023/04/15 04:17:23;;;;;;;0.00;0.00;;;;;;;2.23;100.00;100111.41;6217879;23;20008;-79
2023/04/15 04:19:49;;;;;;;0.00;0.00;;;;;;;2.08;100.00;100087.41;6216987;23;20023;-79
2023/04/15 04:22:14;;;;;;;0.00;0.00;;;;;;;2.14;100.00;100103.78;6218224;23;20434;-79
2023/04/15 04:24:44;;;;;;;0.00;0.00;;;;;;;2.20;100.00;100133.38;6194751;23;20680;-79
2023/04/15 04:27:15;;;;;;;0.00;0.00;;;;;;;2.17;100.00;100111.44;6218492;23;20004;-79
2023/04/15 04:29:40;;;;;;;0.00;0.00;;;;;;;2.38;100.00;100123.72;6220192;23;20011;-78
2023/04/15 04:32:06;;;;;;;0.00;0.00;;;;;;;2.53;100.00;100134.22;6219882;23;20004;-78
2023/04/15 04:34:31;;;;;;;0.00;0.00;;;;;;;2.65;100.00;100139.72;6192231;23;20012;-81
2023/04/15 04:36:57;;;;;;;0.00;0.00;;;;;;;2.88;100.00;100161.53;6242171;23;20006;-77
2023/04/15 04:39:22;;;;;;;0.00;0.00;;;;;;;2.83;100.00;100147.84;6185528;23;20055;-78
2023/04/15 04:41:51;;;;;;;0.00;0.00;;;;;;;2.84;100.00;100160.31;6215965;23;20082;-78
2023/04/15 04:44:19;;;;;;;0.00;0.00;;;;;;;2.86;100.00;100184.41;6211809;23;20023;-78
2023/04/15 04:46:45;;;;;;;0.00;0.00;;;;;;;2.70;100.00;100170.41;6243166;23;20485;-79
2023/04/15 04:49:10;;;;;;;0.00;0.00;;;;;;;2.53;100.00;100159.31;6159953;23;20004;-79
2023/04/15 04:51:36;;;;;;;0.00;0.00;;;;;;;2.43;100.00;100164.38;6192124;23;20038;-80
2023/04/15 04:54:01;;;;;;;0.00;0.00;;;;;;;2.55;100.00;100194.19;6189930;23;20094;-80
2023/04/15 04:56:27;;;;;;;0.08;0.08;;;;;;;2.34;100.00;100174.63;6162120;23;20335;-80
2023/04/15 04:58:55;;;;;;;0.00;0.00;;;;;;;2.26;100.00;100164.91;6216011;23;20019;-80
2023/04/15 05:01:28;;;;;;;0.00;0.00;;;;;;;2.23;100.00;100161.81;6186306;23;20028;-79
2023/04/15 05:03:53;;;;;;;0.00;0.00;;;;;;;2.16;100.00;100159.19;6217581;23;20004;-85
2023/04/15 05:06:29;;;;;;;;;;;;;;;;;;;;;
2023/04/15 06:06:26;;;;;;;0.00;0.00;;;;;;;2.86;100.00;100330.25;6192155;23;20078;-84
2023/04/15 06:09:05;;;;;;;;;;;;;;;;;;;;;
2023/04/15 06:11:42;;;;;;;0.00;0.00;;;;;;;2.85;100.00;100302.41;6213073;23;20076;-81
2023/04/15 06:18:14;;;;;;;0.00;0.00;;;;;;;3.26;100.00;100346.19;6212792;23;20078;-81
2023/04/15 06:20:40;;;;;;;0.00;0.00;;;;;;;3.49;100.00;100372.63;6180622;23;20500;-80
2023/04/15 06:23:06;;;;;;;0.00;0.00;;;;;;;3.45;100.00;100364.13;6187732;23;20454;-82
2023/04/15 06:25:31;;;;;;;0.10;0.10;;;;;;;3.49;100.00;100357.22;6130216;23;20013;-82
2023/04/15 06:27:57;;;;;;;0.00;0.00;;;;;;;3.51;100.00;100350.78;6184927;23;20004;-81
2023/04/15 06:30:40;;;;;;;0.00;0.00;;;;;;;3.76;100.00;100383.22;6180751;23;20011;-79
2023/04/15 06:33:17;;;;;;;0.00;0.00;;;;;;;3.74;100.00;100371.78;6183342;23;20016;-77
2023/04/15 06:35:42;;;;;;;0.00;0.00;;;;;;;3.93;100.00;100389.72;6179096;23;20000;-77
2023/04/15 06:38:08;;;;;;;0.00;0.00;;;;;;;4.01;100.00;100392.13;6183173;23;20104;-75
2023/04/15 06:40:33;;;;;;;0.00;0.00;;;;;;;4.17;100.00;100401.53;6179981;23;20008;-78
2023/04/15 06:43:01;;;;;;;0.00;0.00;;;;;;;4.17;100.00;100395.31;6156704;23;20067;-77
2023/04/15 06:45:29;;;;;;;0.10;0.10;;;;;;;4.33;100.00;100415.53;6156914;23;20445;-77
2023/04/15 06:47:54;;;;;;;0.08;0.08;;;;;;;4.27;100.00;100390.19;6178413;23;20008;-77
2023/04/15 06:50:27;;;;;;;0.00;0.00;;;;;;;4.42;100.00;100402.53;6132125;23;20016;-77
2023/04/15 06:52:57;;;;;;;0.00;0.00;;;;;;;4.53;100.00;100405.31;6155126;23;20001;-77
2023/04/15 06:55:23;;;;;;;0.03;0.03;;;;;;;4.60;100.00;100404.41;6157992;23;20475;-76
2023/04/15 06:57:48;;;;;;;0.00;0.00;;;;;;;4.70;100.00;100410.97;6154244;23;20009;-77
2023/04/15 07:00:14;;;;;;;0.00;0.00;;;;;;;4.81;100.00;100422.91;6183024;23;20013;-76
2023/04/15 07:02:42;;;;;;;0.00;0.00;;;;;;;4.74;100.00;100403.19;6134941;23;20333;-88
2023/04/15 07:05:07;;;;;;;0.03;0.03;;;;;;;4.93;100.00;100417.53;6132112;23;20436;-79
2023/04/15 07:07:33;;;;;;;0.00;0.00;;;;;;;5.07;100.00;100432.56;6149638;23;20013;-81
2023/04/15 07:10:00;;;;;;;0.00;0.00;;;;;;;5.19;100.00;100437.22;6143371;23;20016;-78
2023/04/15 07:12:34;;;;;;;0.00;0.00;;;;;;;5.20;100.00;100430.75;6129680;23;20109;-82
2023/04/15 07:15:00;;;;;;;0.08;0.08;;;;;;;5.34;100.00;100447.63;6152132;23;20036;-83
2023/04/15 07:17:33;;;;;;;0.00;0.00;;;;;;;5.35;100.00;100444.69;6149217;23;20005;-81
2023/04/15 07:20:01;;;;;;;0.10;0.10;;;;;;;5.53;100.00;100456.53;6130601;23;20008;-83
2023/04/15 07:22:26;;;;;;;0.00;0.00;;;;;;;5.58;100.00;100453.97;6151543;23;20029;-80
2023/04/15 07:24:59;;;;;;;0.00;0.00;;;;;;;5.72;100.00;100462.72;6180649;23;20012;-78
2023/04/15 07:27:32;;;;;;;0.00;0.00;;;;;;;5.87;100.00;100473.09;6153234;23;20072;-82
2023/04/15 07:30:08;;;;;;;;;;;;;;;;;;;;;
2023/04/15 07:32:33;;;;;;;0.00;0.00;;;;;;;6.01;100.00;100463.72;6177307;23;20171;-78
2023/04/15 07:34:59;;;;;;;0.00;0.00;;;;;;;6.19;100.00;100476.38;6154699;23;20025;-79
2023/04/15 07:37:24;;;;;;;0.00;0.00;;;;;;;6.22;100.00;100480.50;6122854;23;20005;-76
2023/04/15 07:39:55;;;;;;;0.00;0.00;;;;;;;6.43;100.00;100509.78;6133655;23;20012;-83
2023/04/15 07:42:23;;;;;;;0.10;0.10;;;;;;;6.54;100.00;100510.03;6177361;23;20005;-82
2023/04/15 07:44:51;;;;;;;0.00;0.00;;;;;;;6.54;100.00;100493.72;6154568;23;20008;-81
2023/04/15 07:47:19;;;;;;;0.00;0.00;;;;;;;6.56;100.00;100487.00;6157249;23;20005;-83
2023/04/15 07:49:45;;;;;;;0.08;0.08;;;;;;;6.74;100.00;100506.94;6152184;23;20084;-83
2023/04/15 07:52:13;;;;;;;0.00;0.00;;;;;;;6.79;100.00;100509.75;6130048;23;20017;-82
2023/04/15 07:54:39;;;;;;;0.00;0.00;;;;;;;6.81;100.00;100513.88;6150619;23;20023;-79
2023/04/15 08:00:32;;;;;;;0.00;0.00;;;;;;;6.97;99.87;100530.53;6164146;23;20008;-79
2023/04/15 08:02:58;;;;;;;0.00;0.00;;;;;;;7.02;99.94;100522.47;6147948;23;20352;-79
2023/04/15 08:05:26;;;;;;;0.00;0.00;;;;;;;7.22;100.00;100537.59;6133022;23;20754;-82
2023/04/15 08:07:51;;;;;;;0.00;0.00;;;;;;;7.29;99.34;100546.44;6158520;23;20013;-80
2023/04/15 08:10:17;;;;;;;0.00;0.00;;;;;;;7.54;98.73;100537.13;6177394;23;20478;-81
2023/04/15 08:12:53;;;;;;;0.00;0.00;;;;;;;8.29;100.00;100543.31;6183942;23;20007;-80
2023/04/15 08:15:19;;;;;;;0.00;0.00;;;;;;;8.70;100.00;100546.69;6157685;23;20005;-79
2023/04/15 08:17:45;;;;;;;0.00;0.00;;;;;;;8.71;100.00;100554.63;6184919;23;20001;-79
2023/04/15 08:20:11;;;;;;;0.00;0.00;;;;;;;8.64;99.55;100564.06;6157702;23;20092;-79
2023/04/15 08:22:41;;;;;;;0.00;0.00;;;;;;;8.70;100.00;100549.41;6185959;23;20077;-79
2023/04/15 08:25:19;;;;;;;0.00;0.00;;;;;;;9.78;100.00;100569.88;6158991;23;20312;-80
2023/04/15 08:27:56;;;;;;;0.00;0.00;;;;;;;11.07;100.00;100532.56;6160837;23;20335;-81
2023/04/15 08:30:22;;;;;;;0.00;0.00;;;;;;;12.33;99.83;100554.25;6181726;23;20070;-79
2023/04/15 08:32:50;;;;;;;0.00;0.00;;;;;;;12.58;93.32;100569.06;6183617;23;20009;-80
2023/04/15 08:35:16;;;;;;;0.00;0.00;;;;;;;11.90;92.32;100561.06;6208819;23;20327;-80
2023/04/15 08:37:53;;;;;;;;;;;;;;;;;;;;;
2023/04/15 08:40:36;;;;;;;0.00;0.00;;;;;;;11.79;92.43;100565.69;6210835;23;20080;-81
2023/04/15 08:43:26;;;;;;;0.00;0.00;;;;;;;12.31;88.10;100589.38;6180663;23;20013;-78
2023/04/15 08:45:52;;;;;;;0.00;0.00;;;;;;;13.19;85.50;100603.78;6178253;23;20016;-79
2023/04/15 08:48:23;;;;;;;0.00;0.00;;;;;;;13.14;84.07;100600.22;6182018;23;20031;-79
2023/04/15 08:50:50;;;;;;;0.00;0.00;;;;;;;12.83;85.20;100592.06;6156456;23;20011;-80
2023/04/15 08:53:16;;;;;;;0.00;0.00;;;;;;;12.73;84.44;100623.94;6182384;23;20328;-79
2023/04/15 08:55:54;;;;;;;0.00;0.00;;;;;;;12.78;86.75;100608.56;6157042;23;20331;-79
2023/04/15 08:58:29;;;;;;;0.00;0.00;;;;;;;13.53;83.90;100625.13;6183570;23;20009;-79
2023/04/15 09:00:56;;;;;;;0.00;0.00;;;;;;;13.27;81.43;100638.09;6180582;23;20006;-78
2023/04/15 09:03:22;;;;;;;0.00;0.00;;;;;;;12.83;80.10;100620.31;6153235;23;20108;-80
2023/04/15 09:05:49;;;;;;;0.00;0.00;;;;;;;12.58;78.38;100637.63;6179494;23;20040;-78
2023/04/15 09:08:17;;;;;;;0.00;0.00;;;;;;;12.61;77.28;100650.00;6149062;23;20040;-80
2023/04/15 09:10:51;;;;;;;0.00;0.00;;;;;;;12.91;78.30;100640.94;6128397;23;20029;-80
2023/04/15 09:13:17;;;;;;;0.00;0.00;;;;;;;13.56;81.25;100645.72;6152009;23;20040;-80
2023/04/15 09:15:54;;;;;;;0.00;0.00;;;;;;;13.99;79.03;100654.34;6129109;23;20017;-80
2023/04/15 09:18:35;;;;;;;0.00;0.00;;;;;;;14.14;78.61;100656.97;6155075;23;20005;-80
2023/04/15 09:21:10;;;;;;;0.00;0.00;;;;;;;14.16;75.66;100656.69;6180432;23;20013;-79
2023/04/15 09:23:56;;;;;;;0.10;0.10;;;;;;;14.28;76.87;100650.84;6152020;23;20371;-80
2023/04/15 09:26:36;;;;;;;0.00;0.00;;;;;;;15.37;77.82;100668.09;6154974;23;20416;-80
2023/04/15 09:29:15;;;;;;;0.00;0.00;;;;;;;16.96;77.15;100669.78;6127087;23;20009;-79
2023/04/15 09:31:43;;;;;;;0.00;0.00;;;;;;;20.86;69.59;100674.94;6155203;23;20008;-80
2023/04/15 09:34:26;;;;;;;;;;;;;;;;;;;;;
2023/04/15 09:37:00;;;;;;;0.00;0.00;;;;;;;29.56;52.71;100677.81;6136533;23;20080;-80
2023/04/15 09:39:25;;;;;;;0.00;0.00;;;;;;;32.15;46.66;100689.06;6152289;23;20057;-81
2023/04/15 09:42:05;;;;;;;0.00;0.00;;;;;;;34.16;42.48;100694.63;6155063;23;20001;-80
2023/04/15 09:44:31;;;;;;;0.00;0.00;;;;;;;35.86;41.84;100696.66;6179301;23;20833;-82
2023/04/15 09:47:04;;;;;;;0.00;0.00;;;;;;;37.70;38.94;100698.34;6155724;23;20016;-80
2023/04/15 09:49:32;;;;;;;0.00;0.00;;;;;;;35.37;40.55;100693.44;6151542;23;20012;-80
2023/04/15 09:52:01;;;;;;;0.00;0.00;;;;;;;31.24;41.69;100701.63;6130377;23;20009;-80
2023/04/15 09:54:37;;;;;;;0.00;0.00;;;;;;;25.99;47.11;100685.38;6150907;23;20020;-80
2023/04/15 09:57:07;;;;;;;0.00;0.00;;;;;;;22.72;51.23;100664.13;6129457;23;20005;-79
2023/04/15 09:59:40;;;;;;;0.00;0.00;;;;;;;21.33;55.17;100693.63;6189240;23;20001;-80
2023/04/15 10:02:08;;;;;;;0.00;0.00;;;;;;;22.59;58.73;100698.66;6142920;23;20051;-79
2023/04/15 10:04:40;;;;;;;0.00;0.00;;;;;;;22.35;55.66;100689.03;6156475;23;20000;-81
2023/04/15 10:07:08;;;;;;;0.00;0.00;;;;;;;20.94;56.96;100696.38;6208912;23;20089;-81
2023/04/15 10:09:35;;;;;;;0.00;0.00;;;;;;;19.80;53.91;100706.53;6215001;23;20047;-81
2023/04/15 10:12:03;;;;;;;0.00;0.00;;;;;;;18.96;54.09;100695.19;6182779;23;20012;-81
2023/04/15 10:14:37;;;;;;;0.00;0.00;;;;;;;18.93;55.13;100724.34;6185850;23;20008;-81
2023/04/15 10:17:04;;;;;;;;;;;;;;;18.69;56.09;100727.41;6182069;23;20461;-80
2023/04/15 10:19:36;;;;;;;0.00;0.00;;;;;;;17.65;53.49;100699.47;6159294;23;20316;-80
2023/04/15 10:22:07;;;;;;;0.00;0.00;;;;;;;17.83;56.00;100706.84;6180097;23;20090;-81
2023/04/15 10:24:52;;;;;;;0.00;0.00;;;;;;;18.13;56.74;100735.00;6185301;23;20011;-81
2023/04/15 10:27:21;;;;;;;0.00;0.00;;;;;;;17.54;55.66;100707.94;6179959;23;20008;-80
2023/04/15 10:29:50;;;;;;;0.00;0.00;;;;;;;17.21;55.33;100727.34;6184838;23;20107;-79
2023/04/15 10:32:28;;;;;;;0.00;0.00;;;;;;;21.17;64.10;100735.06;6157517;23;20005;-80
2023/04/15 10:34:54;;;;;;;0.00;0.00;;;;;;;27.80;55.84;100744.75;6210111;23;20011;-80
2023/04/15 10:37:45;;;;;;;0.00;0.00;;;;;;;32.19;45.89;100764.22;6180228;23;20330;-80
2023/04/15 10:40:32;;;;;;;0.00;0.00;;;;;;;36.08;37.07;100775.94;6185114;23;20091;-80
2023/04/15 10:43:09;;;;;;;0.00;0.00;;;;;;;38.28;35.47;100777.56;6209393;23;20428;-79
2023/04/15 10:45:43;;;;;;;0.00;0.00;;;;;;;40.20;35.99;100781.00;6184074;23;20067;-79
2023/04/15 10:48:17;;;;;;;0.00;0.00;;;;;;;43.22;33.27;100779.09;6210697;23;20015;-81
2023/04/15 10:50:54;;;;;;;;;;;;;;;44.39;27.85;100778.50;6157638;23;20008;-81
2023/04/15 10:53:39;;;;;;;0.00;0.00;;;;;;;40.64;26.68;100764.66;6183823;23;19904;-82
2023/04/15 10:56:05;;;;;;;0.00;0.00;;;;;;;35.48;27.08;100756.59;6205358;23;20005;-80
2023/04/15 10:58:41;;;;;;;0.00;0.00;;;;;;;32.97;24.68;100757.91;6159637;23;20197;-80
2023/04/15 11:01:12;;;;;;;0.00;0.00;;;;;;;30.50;25.03;100744.09;6173178;23;20015;-79
2023/04/15 11:03:50;;;;;;;0.00;0.00;;;;;;;29.78;25.47;100752.84;6210814;23;20013;-83
2023/04/15 11:06:18;;;;;;;0.00;0.00;;;;;;;29.16;25.91;100749.81;6202230;23;20031;-80
2023/04/15 11:09:39;;;;;;;0.00;0.00;;;;;;;27.72;26.99;100761.84;6182924;23;20008;-79
2023/04/15 11:12:09;;;;;;;0.00;0.00;;;;;;;26.86;27.79;100764.63;6101034;23;20067;-79
2023/04/15 12:53:37;;;;;;;0.00;0.00;;;;;;;31.81;21.72;100837.34;6332344;22;20023;-79
2023/04/15 12:56:05;;;;;;;0.00;0.00;;;;;;;30.15;22.68;100863.13;6301290;22;20879;-79
2023/04/15 12:58:33;;;;;;;0.00;0.00;;;;;;;28.20;24.00;100852.22;6281527;22;20010;-79
2023/04/15 13:01:02;;;;;;;0.00;0.00;;;;;;;26.88;25.02;100868.88;6299873;22;20003;-78
2023/04/15 13:03:27;;;;;;;0.00;0.00;;;;;;;25.65;26.43;100859.41;6278888;22;20007;-79
2023/04/15 13:05:53;;;;;;;0.00;0.00;;;;;;;24.78;27.46;100856.13;6280985;22;20436;-78
2023/04/15 13:08:18;;;;;;;0.00;0.00;;;;;;;24.16;28.67;100858.91;6304006;22;20014;-80
2023/04/15 13:10:53;;;;;;;0.00;0.00;;;;;;;23.56;29.50;100854.81;6282536;22;20010;-79
2023/04/15 13:13:19;;;;;;;0.00;0.00;;;;;;;22.87;30.27;100843.91;6305186;22;20003;-79
2023/04/15 13:16:05;;;;;;;0.00;0.00;;;;;;;22.37;30.87;100862.25;6305663;22;20307;-77
2023/04/15 13:18:40;;;;;;;;;;;;;;;;;;;;;
2023/04/15 13:21:06;;;;;;;0.00;0.00;;;;;;;22.00;31.86;100872.19;6333002;22;20081;-78
2023/04/15 13:23:32;;;;;;;0.00;0.00;;;;;;;21.87;32.58;100896.31;6276871;22;20406;-78
2023/04/15 13:25:58;;;;;;;0.00;0.00;;;;;;;21.33;32.86;100877.19;6304775;22;20006;-78
2023/04/15 13:28:32;;;;;;;0.00;0.00;;;;;;;21.02;33.20;100878.19;6306727;22;20485;-77
2023/04/15 13:30:59;;;;;;;0.00;0.00;;;;;;;20.67;33.51;100890.06;6300608;22;20003;-78
2023/04/15 13:33:24;;;;;;;0.00;0.00;;;;;;;20.40;34.27;100891.91;6303761;22;20010;-78
2023/04/15 13:35:54;;;;;;;0.00;0.00;;;;;;;20.15;34.95;100892.63;6300807;22;19999;-79
2023/04/15 13:38:24;;;;;;;0.00;0.00;;;;;;;19.89;35.44;100887.78;6281385;22;20005;-79
2023/04/15 13:40:50;;;;;;;0.00;0.00;;;;;;;19.61;35.73;100871.25;6302276;22;20104;-79
2023/04/15 13:43:16;;;;;;;0.00;0.00;;;;;;;19.40;35.86;100881.22;6277038;22;20563;-76
2023/04/15 13:45:42;;;;;;;0.00;0.00;;;;;;;19.48;36.20;100872.97;6304076;22;20479;-78
2023/04/15 13:48:10;;;;;;;0.00;0.00;;;;;;;19.81;36.31;100891.31;6278468;22;20030;-77
2023/04/15 13:50:35;;;;;;;0.00;0.00;;;;;;;20.44;35.41;100896.81;6282285;22;20014;-80
2023/04/15 13:53:01;;;;;;;0.00;0.00;;;;;;;21.44;34.97;100907.13;6251430;22;20096;-79
2023/04/15 13:55:29;;;;;;;0.00;0.00;;;;;;;22.62;33.91;100916.19;6306871;22;20172;-78
2023/04/15 13:57:55;;;;;;;0.00;0.00;;;;;;;24.67;32.22;100894.91;6300874;22;20086;-77
2023/04/15 14:00:23;;;;;;;0.00;0.00;;;;;;;25.68;31.19;100891.50;6305742;22;20057;-75
2023/04/15 14:02:49;;;;;;;0.00;0.00;;;;;;;26.10;30.02;100902.25;6302104;22;20030;-80
2023/04/15 14:05:14;;;;;;;0.00;0.00;;;;;;;25.79;29.42;100898.22;6305448;22;20009;-79
2023/04/15 14:07:40;;;;;;;0.00;0.00;;;;;;;25.36;29.70;100914.59;6306186;22;20003;-78
2023/04/15 14:10:11;;;;;;;0.00;0.00;;;;;;;25.47;29.71;100934.53;6274923;22;20046;-78
2023/04/15 14:12:39;;;;;;;0.00;0.00;;;;;;;27.76;28.65;100918.06;6280609;22;20096;-79
2023/04/15 14:15:05;;;;;;;0.00;0.00;;;;;;;29.87;26.08;100930.13;6276374;22;20013;-78
2023/04/15 14:17:32;;;;;;;0.00;0.00;;;;;;;30.35;24.38;100932.19;6304571;22;20483;-77
2023/04/15 14:19:57;;;;;;;0.00;0.00;;;;;;;32.30;24.05;100945.28;6300209;22;20007;-77
2023/04/15 14:22:23;;;;;;;0.00;0.00;;;;;;;35.36;22.58;100930.63;6270700;22;20082;-77
2023/04/15 14:24:48;;;;;;;0.00;0.00;;;;;;;39.01;19.16;100956.41;6303526;22;20015;-77
2023/04/15 14:27:15;;;;;;;0.00;0.00;;;;;;;38.22;18.26;100956.41;6248648;22;20014;-81
2023/04/15 14:29:43;;;;;;;0.00;0.00;;;;;;;39.60;17.74;100960.03;6305689;22;20042;-76
2023/04/15 14:32:11;;;;;;;0.00;0.00;;;;;;;41.15;16.34;100954.84;6300769;22;20010;-80
2023/04/15 14:53:34;;;;;;;0.00;0.00;;;;;;;25.85;25.91;100905.16;6086230;23;20025;-78
2023/04/15 15:00:13;;;;;;;;;;;;;;;;;;;;;
2023/04/15 15:27:04;;;;;;;0.00;0.00;;;;;;;42.53;14.95;100969.09;6292330;22;1362562;-78